createdAt,value
2018-06-27T00:00:45.750Z,94.10
2018-06-27T00:03:14.236Z,93.90
2018-06-27T00:05:42.810Z,93.90
2018-06-27T00:08:11.451Z,93.90
2018-06-27T00:10:40.111Z,94.00
2018-06-27T00:13:08.533Z,94.00
2018-06-27T00:15:37.042Z,94.00
2018-06-27T00:18:05.702Z,94.20
2018-06-27T00:20:34.303Z,94.20
2018-06-27T00:23:02.830Z,94.10
2018-06-27T00:25:31.298Z,93.90
2018-06-27T00:27:59.971Z,93.90
2018-06-27T00:30:28.413Z,93.80
2018-06-27T00:32:56.969Z,93.70
2018-06-27T00:35:25.388Z,93.80
2018-06-27T00:37:54.075Z,93.30
2018-06-27T00:40:22.510Z,93.50
2018-06-27T00:42:50.948Z,93.60
2018-06-27T00:45:19.552Z,93.80
2018-06-27T00:47:48.115Z,94.00
2018-06-27T00:50:16.608Z,94.00
2018-06-27T00:52:45.054Z,93.70
2018-06-27T00:55:13.450Z,93.90
2018-06-27T00:57:41.935Z,93.90
2018-06-27T01:00:10.390Z,94.00
2018-06-27T01:02:38.810Z,94.20
2018-06-27T01:05:07.496Z,94.30
2018-06-27T01:07:36.182Z,93.90
2018-06-27T01:10:04.762Z,94.00
2018-06-27T01:12:33.355Z,94.20
2018-06-27T01:15:01.793Z,94.10
2018-06-27T01:17:30.276Z,94.20
2018-06-27T01:19:59.634Z,94.10
2018-06-27T01:22:28.146Z,94.10
2018-06-27T01:24:56.590Z,94.30
2018-06-27T01:27:25.138Z,94.20
2018-06-27T01:29:53.543Z,94.20
2018-06-27T01:32:22.079Z,94.30
2018-06-27T01:34:50.771Z,93.80
2018-06-27T01:37:19.278Z,94.10
2018-06-27T01:39:47.676Z,94.30
2018-06-27T01:44:44.235Z,94.50
2018-06-27T01:47:12.700Z,94.30
2018-06-27T01:49:41.098Z,94.20
2018-06-27T01:52:09.679Z,94.30
2018-06-27T01:54:38.199Z,94.00
2018-06-27T01:57:06.837Z,94.00
2018-06-27T01:59:35.389Z,93.90
2018-06-27T02:02:03.892Z,93.70
2018-06-27T02:04:32.428Z,93.80
2018-06-27T02:07:00.904Z,94.00
2018-06-27T02:09:29.368Z,94.50
2018-06-27T02:11:57.858Z,94.80
2018-06-27T02:14:26.403Z,94.60
2018-06-27T02:16:54.886Z,94.50
2018-06-27T02:19:23.358Z,94.60
2018-06-27T02:21:51.763Z,94.70
2018-06-27T02:24:20.328Z,94.50
2018-06-27T02:26:48.936Z,94.80
2018-06-27T02:29:17.558Z,94.40
2018-06-27T02:31:46.224Z,94.60
2018-06-27T02:34:14.977Z,94.60
2018-06-27T02:36:43.883Z,94.80
2018-06-27T02:39:13.004Z,94.90
2018-06-27T02:41:42.518Z,94.50
2018-06-27T02:44:11.795Z,94.30
2018-06-27T02:46:40.254Z,94.40
2018-06-27T02:49:08.720Z,94.40
2018-06-27T02:51:37.227Z,94.20
2018-06-27T02:54:05.877Z,94.10
2018-06-27T02:56:34.705Z,94.10
2018-06-27T02:59:03.136Z,94.30
2018-06-27T03:01:31.685Z,94.60
2018-06-27T03:04:00.287Z,94.70
2018-06-27T03:06:28.875Z,94.50
2018-06-27T03:08:57.527Z,94.20
2018-06-27T03:11:26.203Z,94.10
2018-06-27T03:13:54.867Z,94.20
2018-06-27T03:16:23.372Z,94.40
2018-06-27T03:18:54.116Z,94.50
2018-06-27T03:21:23.192Z,94.20
2018-06-27T03:23:51.884Z,94.30
2018-06-27T03:26:20.643Z,94.40
2018-06-27T03:28:49.923Z,94.50
2018-06-27T03:31:18.850Z,94.50
2018-06-27T03:33:47.662Z,94.30
2018-06-27T03:36:16.146Z,94.50
2018-06-27T03:38:44.568Z,94.30
2018-06-27T03:41:13.176Z,94.60
2018-06-27T03:43:41.759Z,94.80
2018-06-27T03:46:10.925Z,94.70
2018-06-27T03:48:39.427Z,94.80
2018-06-27T03:51:07.868Z,94.70
2018-06-27T03:53:42.004Z,94.40
2018-06-27T03:56:11.955Z,94.50
2018-06-27T03:58:40.832Z,94.50
2018-06-27T04:01:10.355Z,94.50
2018-06-27T04:03:40.431Z,94.60
2018-06-27T04:06:09.743Z,94.50
2018-06-27T04:08:38.367Z,94.60
2018-06-27T04:11:07.123Z,94.60
2018-06-27T04:13:36.071Z,94.90
2018-06-27T04:16:04.679Z,94.80
2018-06-27T04:18:33.123Z,94.70
2018-06-27T04:21:02.331Z,94.60
2018-06-27T04:23:30.985Z,95.00
2018-06-27T04:25:59.387Z,95.10
2018-06-27T04:28:27.901Z,95.20
2018-06-27T04:30:56.822Z,95.30
2018-06-27T04:33:25.380Z,95.70
2018-06-27T04:35:54.059Z,95.60
2018-06-27T04:38:23.073Z,95.80
2018-06-27T04:40:51.587Z,96.30
2018-06-27T04:43:20.023Z,95.80
2018-06-27T04:45:49.263Z,96.20
2018-06-27T04:48:17.923Z,96.50
2018-06-27T04:50:46.559Z,96.40
2018-06-27T04:53:15.119Z,96.40
2018-06-27T04:55:43.739Z,96.50
2018-06-27T04:58:12.236Z,96.70
2018-06-27T05:00:40.722Z,96.10
2018-06-27T05:03:09.311Z,96.10
2018-06-27T05:05:37.819Z,96.40
2018-06-27T05:08:06.480Z,96.40
2018-06-27T05:10:38.055Z,96.10
2018-06-27T05:13:06.665Z,95.90
2018-06-27T05:15:35.099Z,95.50
2018-06-27T05:18:04.232Z,95.30
2018-06-27T05:20:32.648Z,95.10
2018-06-27T05:23:01.203Z,94.80
2018-06-27T05:25:29.883Z,95.00
2018-06-27T05:27:58.381Z,94.70
2018-06-27T05:30:26.997Z,95.00
2018-06-27T05:32:55.554Z,94.70
2018-06-27T05:35:24.547Z,94.80
2018-06-27T05:37:53.107Z,95.10
2018-06-27T05:40:21.896Z,94.80
2018-06-27T05:42:51.120Z,94.50
2018-06-27T05:45:19.712Z,93.80
2018-06-27T05:47:48.187Z,93.30
2018-06-27T05:50:16.834Z,93.30
2018-06-27T05:52:45.412Z,92.80
2018-06-27T05:55:13.991Z,93.20
2018-06-27T05:57:43.019Z,92.40
2018-06-27T06:00:13.047Z,92.30
2018-06-27T06:02:41.519Z,92.10
2018-06-27T06:05:10.521Z,92.00
2018-06-27T06:07:39.040Z,91.60
2018-06-27T06:10:07.690Z,91.30
2018-06-27T06:12:36.163Z,91.50
2018-06-27T06:15:05.663Z,91.30
2018-06-27T06:17:34.190Z,90.90
2018-06-27T06:20:02.858Z,91.10
2018-06-27T06:22:31.774Z,90.90
2018-06-27T06:25:00.360Z,90.70
2018-06-27T06:27:28.792Z,91.10
2018-06-27T06:29:57.487Z,90.60
2018-06-27T06:32:26.800Z,90.70
2018-06-27T06:34:55.247Z,90.40
2018-06-27T06:37:23.771Z,90.10
2018-06-27T06:39:52.252Z,89.70
2018-06-27T06:42:20.866Z,89.20
2018-06-27T06:44:49.488Z,88.20
2018-06-27T06:47:18.072Z,87.90
2018-06-27T06:49:46.780Z,87.80
2018-06-27T06:52:15.399Z,86.30
2018-06-27T06:54:44.187Z,86.80
2018-06-27T06:57:12.714Z,86.60
2018-06-27T06:59:41.316Z,84.30
2018-06-27T07:02:09.795Z,82.70
2018-06-27T07:04:38.299Z,81.30
2018-06-27T07:07:07.676Z,79.60
2018-06-27T07:09:36.154Z,78.50
2018-06-27T07:12:04.831Z,77.80
2018-06-27T07:14:33.368Z,77.30
2018-06-27T07:17:02.008Z,76.60
2018-06-27T07:19:30.587Z,74.60
2018-06-27T07:21:59.220Z,75.10
2018-06-27T07:24:27.815Z,73.60
2018-06-27T07:26:56.472Z,73.30
2018-06-27T07:29:25.028Z,72.10
2018-06-27T07:31:53.897Z,70.90
2018-06-27T07:34:22.548Z,71.60
2018-06-27T07:36:51.010Z,71.80
2018-06-27T07:39:19.596Z,71.20
2018-06-27T07:41:48.371Z,69.80
2018-06-27T07:44:16.952Z,69.50
2018-06-27T07:46:46.351Z,69.30
2018-06-27T07:49:15.701Z,68.50
2018-06-27T07:51:45.301Z,68.80
2018-06-27T07:54:13.876Z,68.20
2018-06-27T07:56:42.381Z,68.10
2018-06-27T07:59:11.020Z,67.30
2018-06-27T08:01:39.606Z,67.40
2018-06-27T08:04:08.430Z,66.00
2018-06-27T08:06:41.352Z,66.30
2018-06-27T08:09:10.935Z,65.60
2018-06-27T08:11:40.445Z,65.30
2018-06-27T08:14:09.145Z,66.00
2018-06-27T08:16:37.605Z,65.20
2018-06-27T08:19:06.131Z,64.70
2018-06-27T08:21:34.651Z,64.00
2018-06-27T08:24:03.687Z,63.90
2018-06-27T08:26:32.481Z,60.90
2018-06-27T08:31:30.144Z,60.40
2018-06-27T08:33:58.805Z,60.20
2018-06-27T08:36:27.268Z,59.60
2018-06-27T08:38:56.079Z,59.80
2018-06-27T08:41:25.489Z,60.40
2018-06-27T08:43:53.954Z,59.60
2018-06-27T08:46:22.715Z,61.00
2018-06-27T08:48:51.360Z,60.30
2018-06-27T08:51:19.948Z,61.80
2018-06-27T08:53:48.578Z,61.50
2018-06-27T08:56:17.134Z,59.60
2018-06-27T08:58:45.696Z,57.50
2018-06-27T09:03:42.727Z,59.20
2018-06-27T09:06:11.314Z,58.40
2018-06-27T09:08:39.870Z,57.30
2018-06-27T09:11:08.591Z,56.10
2018-06-27T09:13:37.320Z,56.70
2018-06-27T09:16:05.868Z,56.20
2018-06-27T09:18:34.648Z,57.10
2018-06-27T09:21:03.237Z,56.50
2018-06-27T09:23:32.397Z,55.70
2018-06-27T09:26:00.900Z,55.80
2018-06-27T09:28:29.620Z,55.60
2018-06-27T09:30:58.231Z,56.80
2018-06-27T09:33:27.046Z,56.60
2018-06-27T09:35:55.564Z,56.80
2018-06-27T09:38:24.121Z,57.40
2018-06-27T09:40:52.976Z,57.50
2018-06-27T09:43:21.926Z,58.30
2018-06-27T09:45:50.466Z,58.50
2018-06-27T09:48:18.960Z,59.50
2018-06-27T09:50:47.742Z,59.30
2018-06-27T09:53:16.587Z,60.00
2018-06-27T09:55:45.994Z,59.30
2018-06-27T09:58:15.540Z,57.80
2018-06-27T10:00:44.004Z,56.90
2018-06-27T10:03:12.460Z,56.50
2018-06-27T10:05:41.500Z,57.10
2018-06-27T10:08:10.175Z,58.50
2018-06-27T10:10:38.773Z,57.70
2018-06-27T10:13:07.352Z,57.70
2018-06-27T10:15:36.119Z,56.70
2018-06-27T10:18:04.879Z,56.80
2018-06-27T10:20:33.621Z,55.00
2018-06-27T10:23:02.279Z,57.40
2018-06-27T10:25:30.955Z,57.70
2018-06-27T10:28:00.359Z,57.10
2018-06-27T10:30:29.111Z,55.60
2018-06-27T10:32:58.985Z,54.70
2018-06-27T10:35:27.628Z,55.40
2018-06-27T10:37:56.304Z,55.00
2018-06-27T10:40:25.008Z,55.80
2018-06-27T10:42:53.795Z,55.50
2018-06-27T10:45:22.683Z,55.30
2018-06-27T10:47:51.234Z,56.50
2018-06-27T10:50:20.407Z,54.70
2018-06-27T10:52:48.928Z,55.20
2018-06-27T10:55:20.015Z,53.90
2018-06-27T10:57:48.858Z,53.70
2018-06-27T11:00:17.354Z,53.50
2018-06-27T11:02:45.955Z,53.00
2018-06-27T11:05:14.772Z,50.80
2018-06-27T11:07:44.195Z,52.50
2018-06-27T11:10:13.298Z,51.80
2018-06-27T11:12:41.947Z,50.50
2018-06-27T11:15:10.489Z,48.70
2018-06-27T11:17:39.013Z,50.30
2018-06-27T11:20:07.467Z,52.30
2018-06-27T11:22:36.139Z,53.90
2018-06-27T11:25:04.831Z,53.60
2018-06-27T11:27:34.149Z,53.40
2018-06-27T11:30:02.753Z,53.60
2018-06-27T11:32:31.273Z,52.50
2018-06-27T11:35:00.268Z,51.70
2018-06-27T11:37:28.844Z,51.90
2018-06-27T11:39:57.483Z,48.40
2018-06-27T11:42:26.293Z,47.60
2018-06-27T11:44:54.984Z,48.30
2018-06-27T11:47:23.530Z,47.80
2018-06-27T11:49:52.018Z,44.70
2018-06-27T11:52:21.341Z,44.40
2018-06-27T11:54:55.327Z,43.90
2018-06-27T11:57:23.866Z,44.30
2018-06-27T11:59:52.764Z,44.60
2018-06-27T12:02:21.475Z,44.70
2018-06-27T12:04:49.955Z,44.50
2018-06-27T12:07:18.671Z,46.30
2018-06-27T12:09:47.367Z,47.20
2018-06-27T12:12:15.947Z,49.20
2018-06-27T12:14:44.558Z,50.60
2018-06-27T12:17:13.127Z,51.00
2018-06-27T12:19:41.752Z,49.90
2018-06-27T12:22:10.270Z,48.10
2018-06-27T12:24:38.772Z,47.50
2018-06-27T12:27:07.340Z,46.20
2018-06-27T12:29:35.873Z,44.20
2018-06-27T12:32:04.420Z,44.20
2018-06-27T12:37:01.333Z,43.80
2018-06-27T12:39:30.038Z,42.40
2018-06-27T12:41:58.800Z,43.10
2018-06-27T12:44:27.341Z,41.30
2018-06-27T12:46:55.950Z,42.90
2018-06-27T12:49:24.557Z,41.80
2018-06-27T12:51:53.215Z,42.90
2018-06-27T12:54:21.775Z,41.80
2018-06-27T12:56:50.335Z,43.90
2018-06-27T12:59:19.229Z,44.10
2018-06-27T13:01:47.933Z,43.60
2018-06-27T13:04:16.475Z,41.80
2018-06-27T13:06:45.164Z,39.40
2018-06-27T13:09:14.022Z,41.80
2018-06-27T13:11:42.720Z,41.70
2018-06-27T13:14:11.238Z,41.70
2018-06-27T13:16:40.079Z,41.90
2018-06-27T13:19:08.799Z,42.30
2018-06-27T13:21:37.481Z,40.70
2018-06-27T13:24:06.127Z,40.10
2018-06-27T13:26:34.738Z,39.10
2018-06-27T13:29:03.328Z,38.20
2018-06-27T13:31:32.587Z,38.40
2018-06-27T13:34:01.134Z,39.50
2018-06-27T13:36:29.659Z,36.60
2018-06-27T13:38:58.330Z,36.00
2018-06-27T13:41:27.675Z,36.50
2018-06-27T13:43:57.079Z,36.40
2018-06-27T13:46:25.987Z,35.50
2018-06-27T13:48:54.762Z,33.40
2018-06-27T13:51:23.526Z,33.40
2018-06-27T13:53:52.090Z,32.80
2018-06-27T13:56:20.829Z,34.00
2018-06-27T13:58:49.720Z,34.10
2018-06-27T14:01:18.388Z,33.20
2018-06-27T14:03:47.473Z,30.40
2018-06-27T14:06:16.128Z,31.30
2018-06-27T14:08:44.628Z,32.70
2018-06-27T14:11:14.535Z,33.90
2018-06-27T14:13:50.613Z,33.70
2018-06-27T14:16:19.126Z,30.20
2018-06-27T14:18:48.106Z,27.70
2018-06-27T14:21:16.604Z,28.80
2018-06-27T14:23:45.249Z,27.30
2018-06-27T14:26:13.823Z,26.50
2018-06-27T14:28:45.995Z,25.90
2018-06-27T14:31:14.585Z,23.70
2018-06-27T14:33:43.220Z,23.20
2018-06-27T14:36:12.025Z,23.00
2018-06-27T14:38:40.552Z,23.30
2018-06-27T14:41:09.920Z,23.80
2018-06-27T14:43:39.523Z,24.30
2018-06-27T14:46:08.356Z,27.40
2018-06-27T14:48:36.867Z,25.40
2018-06-27T14:51:05.504Z,26.20
2018-06-27T14:53:35.356Z,26.40
2018-06-27T14:56:04.253Z,28.70
2018-06-27T14:58:32.976Z,27.60
2018-06-27T15:01:01.594Z,28.50
2018-06-27T15:03:30.527Z,27.90
2018-06-27T15:05:59.154Z,24.50
2018-06-27T15:08:27.637Z,22.10
2018-06-27T15:10:56.306Z,21.60
2018-06-27T15:13:24.814Z,21.50
2018-06-27T15:15:53.485Z,21.10
2018-06-27T15:18:22.237Z,21.70
2018-06-27T15:20:50.763Z,21.30
2018-06-27T15:23:19.387Z,22.00
2018-06-27T15:25:47.868Z,20.70
2018-06-27T15:28:16.397Z,19.60
2018-06-27T15:30:45.070Z,17.90
2018-06-27T15:33:13.497Z,18.90
2018-06-27T15:35:42.256Z,18.80
2018-06-27T15:38:10.850Z,17.00
2018-06-27T15:40:39.406Z,17.60
2018-06-27T15:43:08.667Z,18.30
2018-06-27T15:45:37.420Z,19.40
2018-06-27T15:48:06.146Z,19.30
2018-06-27T15:50:34.830Z,20.00
2018-06-27T15:53:03.830Z,20.80
2018-06-27T15:55:32.635Z,19.40
2018-06-27T15:58:01.900Z,17.60
2018-06-27T16:00:30.679Z,17.60
2018-06-27T16:02:59.451Z,16.30
2018-06-27T16:05:28.769Z,16.40
2018-06-27T16:07:57.467Z,16.40
2018-06-27T16:10:26.775Z,17.60
2018-06-27T16:12:55.423Z,17.40
2018-06-27T16:15:24.682Z,16.40
2018-06-27T16:17:53.401Z,17.10
2018-06-27T16:20:22.722Z,17.80
2018-06-27T16:22:51.592Z,17.80
2018-06-27T16:25:20.469Z,18.50
2018-06-27T16:27:48.967Z,18.60
2018-06-27T16:30:17.636Z,17.80
2018-06-27T16:32:46.279Z,17.60
2018-06-27T16:35:15.039Z,17.20
2018-06-27T16:37:43.674Z,17.50
2018-06-27T16:40:12.235Z,17.50
2018-06-27T16:42:41.198Z,17.90
2018-06-27T16:45:09.877Z,18.80
2018-06-27T16:47:38.416Z,20.90
2018-06-27T16:50:07.768Z,23.70
2018-06-27T16:52:36.335Z,24.00
2018-06-27T16:55:04.999Z,23.00
2018-06-27T16:57:33.817Z,22.20
2018-06-27T17:00:02.413Z,21.00
2018-06-27T17:02:30.953Z,20.60
2018-06-27T17:05:00.300Z,22.20
2018-06-27T17:07:28.806Z,21.50
2018-06-27T17:09:57.848Z,21.10
2018-06-27T17:12:26.626Z,21.10
2018-06-27T17:14:55.184Z,21.20
2018-06-27T17:17:23.847Z,20.20
2018-06-27T17:19:52.389Z,20.00
2018-06-27T17:22:20.955Z,19.70
2018-06-27T17:24:49.763Z,20.10
2018-06-27T17:27:19.159Z,20.20
2018-06-27T17:29:47.815Z,19.90
2018-06-27T17:32:17.063Z,20.50
2018-06-27T17:34:45.681Z,20.60
2018-06-27T17:37:14.168Z,21.90
2018-06-27T17:39:42.787Z,21.60
2018-06-27T17:42:11.580Z,21.30
2018-06-27T17:44:40.149Z,21.70
2018-06-27T17:47:08.651Z,22.50
2018-06-27T17:49:37.530Z,23.50
2018-06-27T17:54:35.328Z,22.70
2018-06-27T17:57:04.371Z,22.40
2018-06-27T17:59:33.530Z,22.40
2018-06-27T18:02:02.684Z,22.50
2018-06-27T18:06:59.496Z,23.40
2018-06-27T18:09:28.199Z,23.60
2018-06-27T18:11:56.870Z,24.70
2018-06-27T18:14:25.547Z,26.20
2018-06-27T18:16:54.308Z,28.20
2018-06-27T18:19:22.915Z,30.10
2018-06-27T18:21:51.673Z,32.60
2018-06-27T18:24:20.204Z,31.90
2018-06-27T18:26:48.941Z,32.60
2018-06-27T18:31:45.805Z,33.60
2018-06-27T18:34:14.440Z,34.40
2018-06-27T18:36:43.168Z,34.80
2018-06-27T18:39:12.080Z,37.30
2018-06-27T18:41:40.894Z,36.90
2018-06-27T18:44:09.548Z,39.10
2018-06-27T18:46:38.287Z,39.50
2018-06-27T18:49:07.090Z,40.50
2018-06-27T18:51:35.685Z,39.30
2018-06-27T18:54:04.340Z,42.80
2018-06-27T18:56:32.831Z,42.40
2018-06-27T18:59:01.411Z,44.40
2018-06-27T19:01:30.040Z,46.30
2018-06-27T19:03:58.611Z,44.30
2018-06-27T19:06:27.349Z,43.40
2018-06-27T19:08:55.966Z,46.10
2018-06-27T19:11:25.128Z,46.20
2018-06-27T19:13:53.990Z,46.40
2018-06-27T19:16:22.650Z,46.40
2018-06-27T19:18:51.189Z,46.90
2018-06-27T19:21:19.771Z,44.40
2018-06-27T19:23:48.458Z,44.70
2018-06-27T19:26:17.020Z,46.00
2018-06-27T19:28:45.546Z,46.30
2018-06-27T19:31:14.277Z,45.90
2018-06-27T19:33:43.026Z,47.90
2018-06-27T19:36:11.640Z,47.90
2018-06-27T19:38:40.292Z,48.50
2018-06-27T19:41:08.784Z,50.00
2018-06-27T19:43:37.523Z,50.30
2018-06-27T19:46:06.113Z,50.80
2018-06-27T19:48:34.706Z,50.70
2018-06-27T19:51:03.542Z,52.60
2018-06-27T19:53:32.204Z,53.60
2018-06-27T19:56:00.710Z,55.00
2018-06-27T19:58:30.049Z,56.30
2018-06-27T20:00:58.797Z,56.90
2018-06-27T20:03:27.652Z,58.30
2018-06-27T20:05:56.461Z,58.90
2018-06-27T20:08:25.270Z,59.60
2018-06-27T20:10:53.974Z,60.50
2018-06-27T20:13:23.683Z,59.20
2018-06-27T20:15:52.342Z,60.40
2018-06-27T20:18:20.953Z,61.00
2018-06-27T20:20:49.702Z,61.90
2018-06-27T20:23:18.752Z,61.80
2018-06-27T20:28:15.654Z,61.50
2018-06-27T20:30:44.423Z,61.80
2018-06-27T20:33:13.056Z,61.60
2018-06-27T20:35:41.927Z,61.10
2018-06-27T20:38:10.520Z,59.00
2018-06-27T20:40:39.796Z,59.60
2018-06-27T20:43:08.762Z,59.80
2018-06-27T20:45:37.862Z,58.70
2018-06-27T20:48:06.631Z,60.00
2018-06-27T20:50:35.561Z,59.70
2018-06-27T20:53:04.582Z,60.10
2018-06-27T20:55:33.224Z,59.90
2018-06-27T20:58:02.645Z,60.40
2018-06-27T21:00:31.282Z,62.20
2018-06-27T21:02:59.788Z,63.30
2018-06-27T21:05:28.957Z,64.80
2018-06-27T21:07:57.672Z,65.50
2018-06-27T21:10:26.191Z,66.10
2018-06-27T21:12:54.799Z,66.40
2018-06-27T21:15:23.532Z,67.30
2018-06-27T21:17:52.078Z,67.20
2018-06-27T21:20:21.565Z,67.70
2018-06-27T21:22:50.173Z,68.60
2018-06-27T21:25:19.548Z,69.00
2018-06-27T21:27:48.093Z,69.60
2018-06-27T21:30:17.739Z,69.10
2018-06-27T21:32:46.551Z,69.80
2018-06-27T21:35:15.077Z,70.80
2018-06-27T21:37:43.568Z,70.50
2018-06-27T21:40:13.438Z,70.50
2018-06-27T21:42:42.196Z,70.40
2018-06-27T21:45:11.004Z,70.60
2018-06-27T21:47:39.452Z,70.50
2018-06-27T21:50:08.191Z,70.90
2018-06-27T21:52:36.824Z,70.90
2018-06-27T21:55:05.737Z,71.40
2018-06-27T21:57:34.435Z,71.70
2018-06-27T22:00:03.158Z,72.00
2018-06-27T22:02:31.855Z,72.50
2018-06-27T22:05:00.540Z,72.30
2018-06-27T22:07:29.906Z,72.60
2018-06-27T22:09:58.483Z,73.20
2018-06-27T22:12:27.136Z,73.30
2018-06-27T22:14:56.492Z,73.30
2018-06-27T22:17:25.066Z,73.30
2018-06-27T22:19:53.568Z,73.90
2018-06-27T22:22:22.156Z,74.90
2018-06-27T22:24:51.535Z,75.20
2018-06-27T22:27:20.397Z,75.40
2018-06-27T22:29:48.884Z,75.50
2018-06-27T22:32:17.429Z,75.00
2018-06-27T22:34:46.041Z,74.90
2018-06-27T22:37:15.207Z,75.20
2018-06-27T22:39:43.719Z,75.80
2018-06-27T22:42:12.325Z,76.20
2018-06-27T22:44:41.488Z,76.40
2018-06-27T22:47:09.946Z,76.90
2018-06-27T22:49:38.634Z,77.80
2018-06-27T22:52:07.355Z,78.10
2018-06-27T22:54:35.954Z,78.60
2018-06-27T22:57:04.736Z,79.00
2018-06-27T22:59:33.942Z,79.60
2018-06-27T23:02:02.964Z,80.00
2018-06-27T23:04:31.699Z,80.10
2018-06-27T23:07:01.403Z,80.30
2018-06-27T23:09:30.805Z,80.70
2018-06-27T23:11:59.848Z,80.60
2018-06-27T23:14:29.112Z,81.00
2018-06-27T23:16:57.592Z,81.50
2018-06-27T23:19:27.420Z,81.40
2018-06-27T23:21:55.938Z,81.00
2018-06-27T23:24:24.687Z,81.50
2018-06-27T23:26:53.293Z,81.60
2018-06-27T23:29:21.724Z,81.80
2018-06-27T23:31:50.281Z,81.90
2018-06-27T23:34:18.859Z,82.10
2018-06-27T23:36:48.152Z,82.60
2018-06-27T23:39:17.731Z,82.60
2018-06-27T23:41:46.342Z,82.50
2018-06-27T23:44:15.004Z,82.50
2018-06-27T23:46:43.648Z,82.40
2018-06-27T23:49:12.280Z,82.50
2018-06-27T23:51:41.844Z,82.80
2018-06-27T23:54:10.361Z,83.80
2018-06-27T23:56:39.460Z,83.40
2018-06-27T23:59:08.163Z,83.90
